createdAt,value
2019-04-04T00:01:39.915Z,17.10
2019-04-04T00:04:11.515Z,17.10
2019-04-04T00:07:00.050Z,17.10
2019-04-04T00:09:48.417Z,17.00
2019-04-04T00:12:36.996Z,17.00
2019-04-04T00:15:26.466Z,17.00
2019-04-04T00:18:14.921Z,17.00
2019-04-04T00:21:04.119Z,16.90
2019-04-04T00:23:52.325Z,17.00
2019-04-04T00:26:42.027Z,16.90
2019-04-04T00:29:30.889Z,16.90
2019-04-04T00:32:21.058Z,16.90
2019-04-04T00:35:08.882Z,16.80
2019-04-04T00:43:20.872Z,16.80
2019-04-04T00:46:12.763Z,16.80
2019-04-04T00:49:05.853Z,16.70
2019-04-04T00:51:53.667Z,16.70
2019-04-04T00:54:47.029Z,16.70
2019-04-04T00:57:43.383Z,16.70
2019-04-04T01:00:37.717Z,16.60
2019-04-04T01:03:32.198Z,16.60
2019-04-04T01:06:25.278Z,16.60
2019-04-04T01:09:22.850Z,16.60
2019-04-04T01:12:16.111Z,16.60
2019-04-04T01:15:10.138Z,16.60
2019-04-04T01:17:58.643Z,16.50
2019-04-04T01:20:51.364Z,16.50
2019-04-04T01:23:46.001Z,16.50
2019-04-04T01:26:39.120Z,16.50
2019-04-04T01:29:30.902Z,16.50
2019-04-04T01:32:21.361Z,16.40
2019-04-04T01:35:13.534Z,16.40
2019-04-04T01:38:06.184Z,16.40
2019-04-04T01:41:03.978Z,16.40
2019-04-04T01:43:51.259Z,16.40
2019-04-04T01:46:51.503Z,16.30
2019-04-04T01:49:51.841Z,16.30
2019-04-04T01:52:34.160Z,16.30
2019-04-04T01:55:28.214Z,16.30
2019-04-04T01:58:16.763Z,16.20
2019-04-04T02:01:08.057Z,16.20
2019-04-04T02:04:01.988Z,16.20
2019-04-04T02:06:54.575Z,16.20
2019-04-04T02:09:46.105Z,16.20
2019-04-04T02:12:38.378Z,16.20
2019-04-04T02:18:38.071Z,16.20
2019-04-04T02:21:30.614Z,16.10
2019-04-04T02:24:20.446Z,16.10
2019-04-04T02:27:11.419Z,16.10
2019-04-04T02:30:05.516Z,16.10
2019-04-04T02:32:59.747Z,16.10
2019-04-04T02:35:46.196Z,16.10
2019-04-04T02:38:39.990Z,16.00
2019-04-04T02:41:34.985Z,16.00
2019-04-04T02:44:27.269Z,16.00
2019-04-04T02:47:17.480Z,16.00
2019-04-04T02:50:07.869Z,16.00
2019-04-04T02:52:56.997Z,16.00
2019-04-04T02:55:48.364Z,16.00
2019-04-04T02:58:43.866Z,16.00
2019-04-04T03:01:34.324Z,16.00
2019-04-04T03:04:23.229Z,15.90
2019-04-04T03:07:16.016Z,16.00
2019-04-04T03:10:07.607Z,15.90
2019-04-04T03:12:58.638Z,15.90
2019-04-04T03:15:51.013Z,16.00
2019-04-04T03:18:39.441Z,16.00
2019-04-04T03:21:31.621Z,16.00
2019-04-04T03:24:20.247Z,16.10
2019-04-04T03:27:11.316Z,16.20
2019-04-04T03:30:02.333Z,16.30
2019-04-04T03:32:54.985Z,16.40
2019-04-04T03:35:43.818Z,16.60
2019-04-04T03:38:31.922Z,16.70
2019-04-04T03:41:23.052Z,16.80
2019-04-04T03:44:14.446Z,16.90
2019-04-04T03:47:04.386Z,17.00
2019-04-04T03:49:58.722Z,17.10
2019-04-04T03:52:51.828Z,17.10
2019-04-04T03:55:46.758Z,17.20
2019-04-04T03:58:35.000Z,17.30
2019-04-04T04:01:23.322Z,17.40
2019-04-04T04:04:11.294Z,17.40
2019-04-04T04:06:43.103Z,17.50
2019-04-04T04:09:32.063Z,17.60
2019-04-04T04:12:20.511Z,17.60
2019-04-04T04:15:09.147Z,17.60
2019-04-04T04:17:57.410Z,17.70
2019-04-04T04:20:49.005Z,17.70
2019-04-04T04:23:37.690Z,17.70
2019-04-04T04:26:31.563Z,17.70
2019-04-04T04:29:29.500Z,17.80
2019-04-04T04:32:21.875Z,17.70
2019-04-04T04:35:15.471Z,17.70
2019-04-04T04:38:09.037Z,17.70
2019-04-04T04:41:04.488Z,17.70
2019-04-04T04:43:55.575Z,17.70
2019-04-04T04:46:52.100Z,17.70
2019-04-04T04:49:40.272Z,17.70
2019-04-04T04:52:34.560Z,17.70
2019-04-04T04:55:35.219Z,17.70
2019-04-04T04:58:23.786Z,17.70
2019-04-04T05:01:18.343Z,17.60
2019-04-04T05:04:13.536Z,17.60
2019-04-04T05:07:07.112Z,17.60
2019-04-04T05:09:58.156Z,17.60
2019-04-04T05:12:53.205Z,17.50
2019-04-04T05:15:51.402Z,17.50
2019-04-04T05:18:48.164Z,17.50
2019-04-04T05:21:54.862Z,17.50
2019-04-04T05:25:06.867Z,17.40
2019-04-04T05:27:42.520Z,17.40
2019-04-04T05:30:30.563Z,17.40
2019-04-04T05:33:19.374Z,17.40
2019-04-04T05:36:07.771Z,17.40
2019-04-04T05:39:02.290Z,17.40
2019-04-04T05:41:54.137Z,17.30
2019-04-04T05:44:42.337Z,17.40
2019-04-04T05:47:36.986Z,17.30
2019-04-04T05:50:27.594Z,17.30
2019-04-04T05:53:15.990Z,17.30
2019-04-04T05:56:09.871Z,17.30
2019-04-04T05:58:59.838Z,17.30
2019-04-04T06:01:51.448Z,17.40
2019-04-04T06:04:43.833Z,17.40
2019-04-04T06:07:18.683Z,17.40
2019-04-04T06:10:12.297Z,17.40
2019-04-04T06:13:10.942Z,17.50
2019-04-04T06:16:04.196Z,17.50
2019-04-04T06:18:56.925Z,17.60
2019-04-04T06:21:45.535Z,17.60
2019-04-04T06:24:46.115Z,17.60
2019-04-04T06:27:34.563Z,17.70
2019-04-04T06:30:42.521Z,17.70
2019-04-04T06:33:25.596Z,17.70
2019-04-04T06:36:29.616Z,17.80
2019-04-04T06:39:25.135Z,17.80
2019-04-04T06:42:16.783Z,17.80
2019-04-04T06:45:15.229Z,17.80
2019-04-04T06:48:01.648Z,17.80
2019-04-04T06:50:50.234Z,17.90
2019-04-04T06:53:43.342Z,18.00
2019-04-04T06:56:31.797Z,17.90
2019-04-04T06:59:18.592Z,17.90
2019-04-04T07:02:12.420Z,18.00
2019-04-04T07:05:00.802Z,17.90
2019-04-04T07:07:50.727Z,18.00
2019-04-04T07:10:57.170Z,18.00
2019-04-04T07:13:42.602Z,18.00
2019-04-04T07:16:36.218Z,18.00
2019-04-04T07:19:28.450Z,18.00
2019-04-04T07:22:24.741Z,18.00
2019-04-04T07:25:09.421Z,18.00
2019-04-04T07:28:00.936Z,18.00
2019-04-04T07:30:54.685Z,18.00
2019-04-04T07:33:43.346Z,18.00
2019-04-04T07:36:33.792Z,18.00
2019-04-04T07:39:31.984Z,18.00
2019-04-04T07:42:26.581Z,18.00
2019-04-04T07:48:28.582Z,18.00
2019-04-04T07:51:22.678Z,17.90
2019-04-04T07:54:17.561Z,18.00
2019-04-04T07:57:06.235Z,17.90
2019-04-04T07:59:54.718Z,18.00
2019-04-04T08:03:01.451Z,17.90
2019-04-04T08:05:55.295Z,18.00
2019-04-04T08:08:30.833Z,17.90
2019-04-04T08:14:41.398Z,18.00
2019-04-04T08:17:45.819Z,18.20
2019-04-04T08:20:35.002Z,18.30
2019-04-04T08:23:46.002Z,18.30
2019-04-04T08:26:28.665Z,18.40
2019-04-04T08:29:16.696Z,18.50
2019-04-04T08:32:05.813Z,18.50
2019-04-04T08:34:54.437Z,18.60
2019-04-04T08:37:42.785Z,18.60
2019-04-04T08:40:31.466Z,18.60
2019-04-04T08:43:19.712Z,18.70
2019-04-04T08:46:08.306Z,18.70
2019-04-04T08:48:56.863Z,18.80
2019-04-04T08:51:44.981Z,18.80
2019-04-04T08:54:34.154Z,18.90
2019-04-04T08:57:22.801Z,18.90
2019-04-04T09:00:13.517Z,18.90
2019-04-04T09:03:01.750Z,18.90
2019-04-04T09:05:32.413Z,18.90
2019-04-04T09:08:03.152Z,18.90
2019-04-04T09:10:33.814Z,18.90
2019-04-04T09:13:03.663Z,18.90
2019-04-04T09:15:33.431Z,18.90
2019-04-04T09:18:21.787Z,18.90
2019-04-04T09:20:52.087Z,18.90
2019-04-04T09:23:21.959Z,18.90
2019-04-04T09:25:55.625Z,19.00
2019-04-04T09:28:41.697Z,19.00
2019-04-04T09:31:12.338Z,19.10
2019-04-04T09:33:43.030Z,19.10
2019-04-04T09:36:13.719Z,19.10
2019-04-04T09:38:44.473Z,19.20
2019-04-04T09:41:15.193Z,19.30
2019-04-04T09:43:46.587Z,19.20
2019-04-04T09:46:17.261Z,18.90
2019-04-04T09:48:47.917Z,18.90
2019-04-04T09:51:18.613Z,19.00
2019-04-04T09:53:53.419Z,19.10
2019-04-04T09:56:39.067Z,19.20
2019-04-04T09:59:27.402Z,19.40
2019-04-04T10:02:17.554Z,19.50
2019-04-04T10:05:07.157Z,19.60
2019-04-04T10:07:55.773Z,19.60
2019-04-04T10:10:44.061Z,19.70
2019-04-04T10:13:32.603Z,19.70
2019-04-04T10:16:21.195Z,19.80
2019-04-04T10:19:09.656Z,19.70
2019-04-04T10:21:58.062Z,19.70
2019-04-04T10:24:46.364Z,19.80
2019-04-04T10:27:36.024Z,20.10
2019-04-04T10:30:24.614Z,20.50
2019-04-04T10:33:12.793Z,20.50
2019-04-04T10:36:01.677Z,20.40
2019-04-04T10:38:50.214Z,20.30
2019-04-04T10:41:38.598Z,20.20
2019-04-04T10:44:09.264Z,20.00
2019-04-04T10:46:39.998Z,20.00
2019-04-04T10:49:10.678Z,19.90
2019-04-04T10:51:41.329Z,19.90
2019-04-04T10:54:12.093Z,19.80
2019-04-04T10:56:42.776Z,19.80
2019-04-04T10:59:13.499Z,19.90
2019-04-04T11:01:44.169Z,19.90
2019-04-04T11:04:14.815Z,20.00
2019-04-04T11:07:03.515Z,20.00
2019-04-04T11:09:52.101Z,20.10
2019-04-04T11:12:40.297Z,20.20
2019-04-04T11:15:28.870Z,20.20
2019-04-04T11:18:18.031Z,20.30
2019-04-04T11:21:06.928Z,20.30
2019-04-04T11:23:55.461Z,20.40
2019-04-04T11:26:44.449Z,20.40
2019-04-04T11:29:33.061Z,20.40
2019-04-04T11:32:21.283Z,20.50
2019-04-04T11:35:10.486Z,20.50
2019-04-04T11:37:58.992Z,20.50
2019-04-04T11:40:47.410Z,20.60
2019-04-04T11:43:36.295Z,20.60
2019-04-04T11:46:24.513Z,20.60
2019-04-04T11:49:13.093Z,20.60
2019-04-04T11:52:01.153Z,20.60
2019-04-04T11:55:02.411Z,20.60
2019-04-04T11:57:50.438Z,20.60
2019-04-04T12:00:40.990Z,20.60
2019-04-04T12:03:29.029Z,20.60
2019-04-04T12:06:17.293Z,20.60
2019-04-04T12:09:07.293Z,20.60
2019-04-04T12:11:55.623Z,20.60
2019-04-04T12:14:44.063Z,20.60
2019-04-04T12:17:32.841Z,20.60
2019-04-04T12:20:21.065Z,20.60
2019-04-04T12:23:10.216Z,20.60
2019-04-04T12:25:58.668Z,20.60
2019-04-04T12:28:46.695Z,20.60
2019-04-04T12:31:35.193Z,20.60
2019-04-04T12:34:23.734Z,20.70
2019-04-04T12:37:12.468Z,20.70
2019-04-04T12:40:01.244Z,20.90
2019-04-04T12:42:49.862Z,21.00
2019-04-04T12:45:38.792Z,21.10
2019-04-04T12:48:27.014Z,21.10
2019-04-04T12:51:15.772Z,21.10
2019-04-04T12:54:04.260Z,21.10
2019-04-04T12:56:53.096Z,21.10
2019-04-04T12:59:42.431Z,21.00
2019-04-04T13:02:31.384Z,21.00
2019-04-04T13:05:19.922Z,20.90
2019-04-04T13:08:08.511Z,20.90
2019-04-04T13:10:58.815Z,20.90
2019-04-04T13:13:47.227Z,20.90
2019-04-04T13:16:35.622Z,20.80
2019-04-04T13:19:24.750Z,20.80
2019-04-04T13:22:13.994Z,20.80
2019-04-04T13:25:02.512Z,20.80
2019-04-04T13:27:51.128Z,20.90
2019-04-04T13:30:39.733Z,20.90
2019-04-04T13:33:28.342Z,20.90
2019-04-04T13:36:17.208Z,20.90
2019-04-04T13:39:10.454Z,20.90
2019-04-04T13:41:58.847Z,20.90
2019-04-04T13:44:47.441Z,20.90
2019-04-04T13:47:39.296Z,20.90
2019-04-04T13:50:27.115Z,20.90
2019-04-04T13:53:16.291Z,20.90
2019-04-04T13:56:04.942Z,20.90
2019-04-04T13:58:53.180Z,20.90
2019-04-04T14:01:44.226Z,20.90
2019-04-04T14:04:32.514Z,20.90
2019-04-04T14:07:20.924Z,20.90
2019-04-04T14:10:10.969Z,20.90
2019-04-04T14:12:59.124Z,20.90
2019-04-04T14:15:47.369Z,20.90
2019-04-04T14:18:39.881Z,20.90
2019-04-04T14:21:26.338Z,20.90
2019-04-04T14:24:15.080Z,20.90
2019-04-04T14:27:03.465Z,20.90
2019-04-04T14:29:51.819Z,20.80
2019-04-04T14:32:40.019Z,20.80
2019-04-04T14:35:29.363Z,20.80
2019-04-04T14:38:17.834Z,20.80
2019-04-04T14:41:11.641Z,20.80
2019-04-04T14:43:59.970Z,20.80
2019-04-04T14:46:46.701Z,20.80
2019-04-04T14:49:34.990Z,20.80
2019-04-04T14:52:24.257Z,20.90
2019-04-04T14:55:12.813Z,20.90
2019-04-04T14:58:00.956Z,20.80
2019-04-04T15:00:49.018Z,20.80
2019-04-04T15:03:37.610Z,20.80
2019-04-04T15:06:26.303Z,20.80
2019-04-04T15:09:15.273Z,20.80
2019-04-04T15:12:04.027Z,20.80
2019-04-04T15:14:52.347Z,20.80
2019-04-04T15:17:40.583Z,20.80
2019-04-04T15:20:28.946Z,20.70
2019-04-04T15:23:17.393Z,20.70
2019-04-04T15:26:05.931Z,20.70
2019-04-04T15:28:54.115Z,20.70
2019-04-04T15:31:42.545Z,20.70
2019-04-04T15:34:30.593Z,20.70
2019-04-04T15:37:19.510Z,20.70
2019-04-04T15:40:08.758Z,20.70
2019-04-04T15:42:57.266Z,20.70
2019-04-04T15:45:46.004Z,20.70
2019-04-04T15:48:34.518Z,20.80
2019-04-04T15:51:22.917Z,20.80
2019-04-04T15:54:11.888Z,20.80
2019-04-04T15:57:00.381Z,20.80
2019-04-04T15:59:48.724Z,20.80
2019-04-04T16:02:37.495Z,20.80
2019-04-04T16:05:25.919Z,20.90
2019-04-04T16:08:14.342Z,20.90
2019-04-04T16:11:03.302Z,20.90
2019-04-04T16:13:51.967Z,20.90
2019-04-04T16:16:40.379Z,20.90
2019-04-04T16:19:29.209Z,20.90
2019-04-04T16:22:17.838Z,21.00
2019-04-04T16:25:08.083Z,21.00
2019-04-04T16:27:56.235Z,21.00
2019-04-04T16:30:44.944Z,21.00
2019-04-04T16:33:33.022Z,21.00
2019-04-04T16:36:21.244Z,21.00
2019-04-04T16:39:10.490Z,21.00
2019-04-04T16:42:02.419Z,21.00
2019-04-04T16:44:48.877Z,21.00
2019-04-04T16:47:38.353Z,21.00
2019-04-04T16:50:26.681Z,21.00
2019-04-04T16:53:14.846Z,21.00
2019-04-04T16:56:03.502Z,21.00
2019-04-04T16:58:52.536Z,21.00
2019-04-04T17:01:41.147Z,21.00
2019-04-04T17:04:29.792Z,20.90
2019-04-04T17:07:18.317Z,20.90
2019-04-04T17:10:08.946Z,20.90
2019-04-04T17:12:57.110Z,20.90
2019-04-04T17:15:45.842Z,20.90
2019-04-04T17:18:34.066Z,20.90
2019-04-04T17:21:23.039Z,20.90
2019-04-04T17:24:11.696Z,20.90
2019-04-04T17:27:00.319Z,20.90
2019-04-04T17:29:48.736Z,20.90
2019-04-04T17:32:37.501Z,20.90
2019-04-04T17:35:26.069Z,20.80
2019-04-04T17:38:14.415Z,20.90
2019-04-04T17:41:02.737Z,20.80
2019-04-04T17:43:50.955Z,20.80
2019-04-04T17:46:39.981Z,20.80
2019-04-04T17:49:29.528Z,20.80
2019-04-04T17:52:18.788Z,20.80
2019-04-04T17:55:09.096Z,20.80
2019-04-04T17:57:57.915Z,20.80
2019-04-04T18:00:46.694Z,20.80
2019-04-04T18:03:35.221Z,20.80
2019-04-04T18:06:23.569Z,20.80
2019-04-04T18:09:12.151Z,20.80
2019-04-04T18:12:00.535Z,20.80
2019-04-04T18:14:48.940Z,20.80
2019-04-04T18:17:37.652Z,20.80
2019-04-04T18:20:26.391Z,20.80
2019-04-04T18:23:15.229Z,20.90
2019-04-04T18:26:04.154Z,20.90
2019-04-04T18:28:53.358Z,20.90
2019-04-04T18:31:42.353Z,20.90
2019-04-04T18:34:31.410Z,20.90
2019-04-04T18:37:20.778Z,20.90
2019-04-04T18:40:10.479Z,20.90
2019-04-04T18:42:59.074Z,20.80
2019-04-04T18:45:47.224Z,20.80
2019-04-04T18:48:35.930Z,20.80
2019-04-04T18:51:24.477Z,20.80
2019-04-04T18:54:13.100Z,20.70
2019-04-04T18:57:01.309Z,20.70
2019-04-04T18:59:51.027Z,20.70
2019-04-04T19:02:40.099Z,20.70
2019-04-04T19:05:28.375Z,20.60
2019-04-04T19:08:18.048Z,20.60
2019-04-04T19:11:07.495Z,20.60
2019-04-04T19:13:55.700Z,20.60
2019-04-04T19:16:44.313Z,20.60
2019-04-04T19:19:33.891Z,20.60
2019-04-04T19:22:22.103Z,20.60
2019-04-04T19:25:13.650Z,20.60
2019-04-04T19:28:01.632Z,20.60
2019-04-04T19:30:50.971Z,20.60
2019-04-04T19:33:39.385Z,20.60
2019-04-04T19:36:28.144Z,20.60
2019-04-04T19:39:18.004Z,20.60
2019-04-04T19:42:07.554Z,20.60
2019-04-04T19:44:55.831Z,20.60
2019-04-04T19:47:44.526Z,20.60
2019-04-04T19:50:33.011Z,20.60
2019-04-04T19:53:21.760Z,20.60
2019-04-04T19:56:10.194Z,20.60
2019-04-04T19:58:58.829Z,20.60
2019-04-04T20:01:47.771Z,20.60
2019-04-04T20:04:38.011Z,20.60
2019-04-04T20:07:26.711Z,20.60
2019-04-04T20:10:15.243Z,20.60
2019-04-04T20:13:04.204Z,20.60
2019-04-04T20:15:52.568Z,20.70
2019-04-04T20:18:40.911Z,20.70
2019-04-04T20:21:29.618Z,20.60
2019-04-04T20:24:17.955Z,20.60
2019-04-04T20:27:06.645Z,20.60
2019-04-04T20:29:55.081Z,20.60
2019-04-04T20:32:43.333Z,20.60
2019-04-04T20:35:31.859Z,20.50
2019-04-04T20:38:20.067Z,20.50
2019-04-04T20:41:08.406Z,20.50
2019-04-04T20:43:57.249Z,20.50
2019-04-04T20:46:52.638Z,20.40
2019-04-04T20:49:40.628Z,20.40
2019-04-04T20:52:29.354Z,20.40
2019-04-04T20:55:17.861Z,20.40
2019-04-04T20:58:06.307Z,20.30
2019-04-04T21:00:54.756Z,20.30
2019-04-04T21:03:43.195Z,20.30
2019-04-04T21:06:32.630Z,20.20
2019-04-04T21:09:20.640Z,20.20
2019-04-04T21:12:11.310Z,20.10
2019-04-04T21:14:59.154Z,20.10
2019-04-04T21:17:47.405Z,20.10
2019-04-04T21:20:35.785Z,20.10
2019-04-04T21:23:24.956Z,20.00
2019-04-04T21:26:13.480Z,20.00
2019-04-04T21:29:02.054Z,19.90
2019-04-04T21:31:50.217Z,19.90
2019-04-04T21:34:38.560Z,19.90
2019-04-04T21:37:26.732Z,19.90
2019-04-04T21:40:16.034Z,19.80
2019-04-04T21:43:04.519Z,19.80
2019-04-04T21:45:53.303Z,19.70
2019-04-04T21:48:41.936Z,19.70
2019-04-04T21:51:30.136Z,19.70
2019-04-04T21:54:18.180Z,19.60
2019-04-04T21:57:06.583Z,19.60
2019-04-04T21:59:55.208Z,19.60
2019-04-04T22:02:43.883Z,19.50
2019-04-04T22:05:32.350Z,19.50
2019-04-04T22:08:20.891Z,19.50
2019-04-04T22:11:09.524Z,19.40
2019-04-04T22:13:58.637Z,19.40
2019-04-04T22:16:47.261Z,19.30
2019-04-04T22:19:36.748Z,19.40
2019-04-04T22:22:25.134Z,19.30
2019-04-04T22:25:13.424Z,19.30
2019-04-04T22:28:01.717Z,19.20
2019-04-04T22:30:50.061Z,19.20
2019-04-04T22:33:38.421Z,19.10
2019-04-04T22:36:26.887Z,19.10
2019-04-04T22:39:15.532Z,19.00
2019-04-04T22:42:03.839Z,19.00
2019-04-04T22:44:52.101Z,19.00
2019-04-04T22:47:40.493Z,19.00
2019-04-04T22:50:29.131Z,18.90
2019-04-04T22:53:18.269Z,18.90
2019-04-04T22:56:06.437Z,18.90
2019-04-04T22:58:54.903Z,18.80
2019-04-04T23:01:43.258Z,18.80
2019-04-04T23:04:31.744Z,18.80
2019-04-04T23:07:20.289Z,18.70
2019-04-04T23:10:09.217Z,18.70
2019-04-04T23:12:57.815Z,18.70
2019-04-04T23:15:46.234Z,18.60
2019-04-04T23:18:35.796Z,18.60
2019-04-04T23:21:24.443Z,18.50
2019-04-04T23:24:12.827Z,18.50
2019-04-04T23:27:01.288Z,18.50
2019-04-04T23:29:49.880Z,18.50
2019-04-04T23:32:38.638Z,18.50
2019-04-04T23:35:27.537Z,18.40
2019-04-04T23:38:15.704Z,18.40
2019-04-04T23:41:04.280Z,18.40
2019-04-04T23:43:53.001Z,18.30
2019-04-04T23:46:41.193Z,18.30
2019-04-04T23:49:29.534Z,18.30
2019-04-04T23:52:18.002Z,18.30
2019-04-04T23:55:06.850Z,18.20
2019-04-04T23:57:55.817Z,18.20
